createdAt,value
2017-06-21T00:00:01.841Z,95.89
2017-06-21T00:00:15.312Z,95.98
2017-06-21T00:00:28.748Z,95.51
2017-06-21T00:00:42.191Z,95.7
2017-06-21T00:00:55.651Z,95.7
2017-06-21T00:01:09.409Z,95.61
2017-06-21T00:01:21.812Z,95.79
2017-06-21T00:01:34.792Z,95.79
2017-06-21T00:01:47.763Z,95.51
2017-06-21T00:02:01.274Z,95.32
2017-06-21T00:02:14.210Z,95.51
2017-06-21T00:02:27.657Z,95.41
2017-06-21T00:02:41.113Z,95.79
2017-06-21T00:02:54.579Z,95.79
2017-06-21T00:03:08.058Z,95.61
2017-06-21T00:03:21.542Z,95.7
2017-06-21T00:03:35.013Z,95.89
2017-06-21T00:03:48.507Z,95.89
2017-06-21T00:04:02.049Z,95.61
2017-06-21T00:04:14.947Z,95.51
2017-06-21T00:04:28.435Z,95.7
2017-06-21T00:04:41.917Z,95.7
2017-06-21T00:04:55.357Z,95.7
2017-06-21T00:05:08.265Z,95.7
2017-06-21T00:05:21.721Z,95.7
2017-06-21T00:05:35.219Z,96.27
2017-06-21T00:05:48.625Z,96.47
2017-06-21T00:06:02.070Z,96.18
2017-06-21T00:06:15.634Z,96.37
2017-06-21T00:06:28.604Z,96.08
2017-06-21T00:06:42.144Z,96.27
2017-06-21T00:06:55.092Z,96.08
2017-06-21T00:07:08.547Z,96.27
2017-06-21T00:07:21.481Z,96.08
2017-06-21T00:07:34.448Z,96.47
2017-06-21T00:07:47.855Z,96.37
2017-06-21T00:08:01.301Z,96.27
2017-06-21T00:08:14.235Z,95.98
2017-06-21T00:08:27.678Z,96.37
2017-06-21T00:08:40.560Z,96.27
2017-06-21T00:08:53.979Z,96.47
2017-06-21T00:09:07.455Z,96.47
2017-06-21T00:09:20.943Z,96.47
2017-06-21T00:09:34.478Z,96.37
2017-06-21T00:09:47.974Z,96.47
2017-06-21T00:10:00.939Z,96.08
2017-06-21T00:10:13.884Z,96.47
2017-06-21T00:10:27.368Z,96.37
2017-06-21T00:10:40.310Z,96.47
2017-06-21T00:10:53.265Z,96.37
2017-06-21T00:11:06.741Z,96.37
2017-06-21T00:11:19.651Z,96.47
2017-06-21T00:11:33.132Z,96.66
2017-06-21T00:11:45.522Z,96.56
2017-06-21T00:11:59.180Z,96.47
2017-06-21T00:12:12.596Z,96.47
2017-06-21T00:12:26.098Z,96.47
2017-06-21T00:12:38.512Z,96.84
2017-06-21T00:12:51.449Z,96.84
2017-06-21T00:13:04.400Z,96.66
2017-06-21T00:13:17.926Z,96.37
2017-06-21T00:13:31.406Z,96.47
2017-06-21T00:13:44.863Z,96.37
2017-06-21T00:13:58.320Z,96.47
2017-06-21T00:14:11.786Z,96.75
2017-06-21T00:14:24.706Z,96.66
2017-06-21T00:14:37.672Z,96.56
2017-06-21T00:14:51.192Z,96.84
2017-06-21T00:15:04.705Z,96.56
2017-06-21T00:15:18.229Z,96.47
2017-06-21T00:15:31.208Z,96.75
2017-06-21T00:15:44.673Z,96.84
2017-06-21T00:15:57.622Z,96.84
2017-06-21T00:16:11.344Z,96.66
2017-06-21T00:16:24.785Z,96.66
2017-06-21T00:16:38.286Z,96.84
2017-06-21T00:16:51.751Z,97.04
2017-06-21T00:17:05.166Z,96.66
2017-06-21T00:17:18.573Z,96.75
2017-06-21T00:17:32.034Z,96.84
2017-06-21T00:17:45.483Z,96.75
2017-06-21T00:17:58.942Z,96.94
2017-06-21T00:18:12.410Z,96.56
2017-06-21T00:18:25.877Z,96.84
2017-06-21T00:18:39.343Z,96.75
2017-06-21T00:18:52.868Z,96.75
2017-06-21T00:19:05.825Z,96.84
2017-06-21T00:19:19.286Z,96.66
2017-06-21T00:19:32.180Z,96.75
2017-06-21T00:19:45.151Z,96.94
2017-06-21T00:19:58.573Z,96.75
2017-06-21T00:20:12.080Z,96.84
2017-06-21T00:20:25.594Z,96.56
2017-06-21T00:20:39.080Z,97.04
2017-06-21T00:20:52.545Z,96.75
2017-06-21T00:21:05.971Z,96.84
2017-06-21T00:21:19.409Z,96.84
2017-06-21T00:21:32.888Z,97.04
2017-06-21T00:21:46.368Z,96.84
2017-06-21T00:21:59.839Z,96.84
2017-06-21T00:22:12.781Z,96.94
2017-06-21T00:22:25.716Z,96.84
2017-06-21T00:22:39.162Z,96.94
2017-06-21T00:22:52.645Z,96.84
2017-06-21T00:23:06.082Z,96.84
2017-06-21T00:23:19.060Z,96.84
2017-06-21T00:23:32.529Z,96.94
2017-06-21T00:23:45.496Z,96.47
2017-06-21T00:23:58.956Z,96.84
2017-06-21T00:24:12.406Z,96.66
2017-06-21T00:24:25.878Z,96.66
2017-06-21T00:24:38.797Z,96.84
2017-06-21T00:24:51.767Z,96.84
2017-06-21T00:25:05.220Z,96.66
2017-06-21T00:25:18.667Z,96.75
2017-06-21T00:25:32.079Z,96.84
2017-06-21T00:25:45.539Z,96.75
2017-06-21T00:25:58.553Z,96.84
2017-06-21T00:26:12.104Z,96.84
2017-06-21T00:26:25.565Z,96.66
2017-06-21T00:26:39.063Z,96.84
2017-06-21T00:26:51.977Z,96.84
2017-06-21T00:27:05.395Z,96.84
2017-06-21T00:27:18.339Z,96.75
2017-06-21T00:27:31.818Z,96.56
2017-06-21T00:27:45.210Z,96.66
2017-06-21T00:27:58.682Z,96.66
2017-06-21T00:28:12.139Z,96.75
2017-06-21T00:28:25.641Z,96.84
2017-06-21T00:28:38.582Z,96.66
2017-06-21T00:28:52.002Z,96.94
2017-06-21T00:29:05.438Z,96.75
2017-06-21T00:29:18.908Z,96.66
2017-06-21T00:29:31.864Z,96.75
2017-06-21T00:29:44.799Z,96.47
2017-06-21T00:29:58.211Z,96.47
2017-06-21T00:30:11.134Z,96.84
2017-06-21T00:30:24.740Z,96.94
2017-06-21T00:30:38.242Z,96.84
2017-06-21T00:30:51.773Z,96.75
2017-06-21T00:31:05.297Z,96.84
2017-06-21T00:31:19.231Z,96.75
2017-06-21T00:31:32.687Z,96.84
2017-06-21T00:31:46.154Z,96.75
2017-06-21T00:31:59.611Z,96.84
2017-06-21T00:32:12.599Z,96.75
2017-06-21T00:32:25.599Z,96.94
2017-06-21T00:32:39.109Z,96.84
2017-06-21T00:32:52.560Z,96.84
2017-06-21T00:33:06.002Z,97.13
2017-06-21T00:33:18.935Z,96.94
2017-06-21T00:33:32.486Z,96.94
2017-06-21T00:33:46.004Z,96.66
2017-06-21T00:33:59.408Z,96.75
2017-06-21T00:34:12.299Z,96.94
2017-06-21T00:34:25.779Z,96.84
2017-06-21T00:34:38.756Z,96.84
2017-06-21T00:34:51.688Z,96.84
2017-06-21T00:35:05.127Z,96.84
2017-06-21T00:35:18.067Z,96.84
2017-06-21T00:35:30.994Z,96.84
2017-06-21T00:35:43.972Z,96.84
2017-06-21T00:35:56.929Z,96.84
2017-06-21T00:36:09.932Z,96.84
2017-06-21T00:36:23.362Z,96.84
2017-06-21T00:36:36.853Z,96.84
2017-06-21T00:36:50.283Z,96.94
2017-06-21T00:37:03.803Z,96.84
2017-06-21T00:37:17.275Z,96.84
2017-06-21T00:37:30.802Z,96.94
2017-06-21T00:37:44.246Z,96.94
2017-06-21T00:37:57.219Z,96.37
2017-06-21T00:38:10.137Z,96.27
2017-06-21T00:38:23.627Z,96.47
2017-06-21T00:38:36.585Z,96.84
2017-06-21T00:38:49.474Z,96.56
2017-06-21T00:39:02.907Z,96.47
2017-06-21T00:39:16.400Z,96.47
2017-06-21T00:39:29.796Z,96.47
2017-06-21T00:39:43.332Z,96.27
2017-06-21T00:39:56.793Z,96.47
2017-06-21T00:40:10.263Z,96.47
2017-06-21T00:40:23.683Z,96.47
2017-06-21T00:40:36.141Z,96.47
2017-06-21T00:40:49.601Z,96.56
2017-06-21T00:41:02.534Z,96.47
2017-06-21T00:41:16.000Z,96.37
2017-06-21T00:41:28.872Z,96.47
2017-06-21T00:41:42.401Z,96.56
2017-06-21T00:41:55.919Z,95.98
2017-06-21T00:42:09.351Z,96.47
2017-06-21T00:42:22.262Z,96.56
2017-06-21T00:42:35.758Z,96.27
2017-06-21T00:42:48.679Z,96.08
2017-06-21T00:43:02.166Z,96.47
2017-06-21T00:43:15.637Z,96.18
2017-06-21T00:43:29.161Z,95.89
2017-06-21T00:43:42.704Z,95.98
2017-06-21T00:43:56.135Z,96.27
2017-06-21T00:44:09.633Z,96.27
2017-06-21T00:44:23.113Z,95.98
2017-06-21T00:44:36.593Z,95.98
2017-06-21T00:44:50.109Z,96.18
2017-06-21T00:45:03.022Z,96.27
2017-06-21T00:45:15.893Z,96.08
2017-06-21T00:45:29.347Z,96.18
2017-06-21T00:45:42.888Z,96.08
2017-06-21T00:45:56.384Z,96.08
2017-06-21T00:46:09.850Z,96.37
2017-06-21T00:46:23.112Z,96.08
2017-06-21T00:46:36.563Z,95.98
2017-06-21T00:46:50.037Z,95.89
2017-06-21T00:47:03.504Z,95.98
2017-06-21T00:47:16.917Z,95.98
2017-06-21T00:47:30.372Z,96.08
2017-06-21T00:47:43.841Z,96.18
2017-06-21T00:47:57.347Z,95.89
2017-06-21T00:48:09.704Z,96.18
2017-06-21T00:48:23.132Z,95.98
2017-06-21T00:48:36.599Z,96.27
2017-06-21T00:48:49.591Z,96.08
2017-06-21T00:49:02.021Z,96.47
2017-06-21T00:49:14.981Z,96.47
2017-06-21T00:49:28.452Z,95.89
2017-06-21T00:49:41.429Z,96.08
2017-06-21T00:49:54.885Z,95.98
2017-06-21T00:50:07.823Z,96.18
2017-06-21T00:50:21.288Z,96.47
2017-06-21T00:50:34.271Z,96.47
2017-06-21T00:50:47.753Z,96.47
2017-06-21T00:51:02.440Z,96.84
2017-06-21T00:51:15.906Z,96.66
2017-06-21T00:51:29.322Z,96.37
2017-06-21T00:51:43.592Z,96.56
2017-06-21T00:51:56.587Z,96.47
2017-06-21T00:52:10.096Z,96.47
2017-06-21T00:52:23.562Z,96.27
2017-06-21T00:52:37.054Z,96.47
2017-06-21T00:52:50.513Z,96.37
2017-06-21T00:53:04.053Z,96.47
2017-06-21T00:53:17.581Z,96.37
2017-06-21T00:53:31.042Z,96.47
2017-06-21T00:53:44.568Z,96.47
2017-06-21T00:53:58.111Z,96.47
2017-06-21T00:54:10.542Z,96.47
2017-06-21T00:54:24.042Z,96.37
2017-06-21T00:54:36.951Z,96.75
2017-06-21T00:54:50.492Z,96.37
2017-06-21T00:55:04.010Z,96.37
2017-06-21T00:55:16.932Z,96.37
2017-06-21T00:55:30.375Z,96.47
2017-06-21T00:55:43.851Z,96.37
2017-06-21T00:55:56.848Z,96.27
2017-06-21T00:56:09.790Z,96.47
2017-06-21T00:56:23.263Z,96.27
2017-06-21T00:56:36.740Z,96.37
2017-06-21T00:56:50.166Z,96.37
2017-06-21T00:57:03.098Z,96.47
2017-06-21T00:57:16.588Z,96.37
2017-06-21T00:57:30.007Z,96.47
2017-06-21T00:57:42.974Z,96.37
2017-06-21T00:57:56.438Z,96.47
2017-06-21T00:58:09.847Z,96.37
2017-06-21T00:58:22.799Z,96.84
2017-06-21T00:58:36.199Z,96.75
2017-06-21T00:58:49.645Z,96.84
2017-06-21T00:59:02.553Z,96.75
2017-06-21T00:59:15.520Z,96.47
2017-06-21T00:59:29.244Z,96.37
2017-06-21T00:59:42.726Z,96.56
2017-06-21T00:59:55.652Z,96.56
2017-06-21T01:00:08.598Z,96.47
2017-06-21T01:00:21.528Z,96.47
2017-06-21T01:00:34.987Z,96.56
2017-06-21T01:00:48.436Z,96.37
2017-06-21T01:01:01.917Z,96.47
2017-06-21T01:01:14.901Z,96.47
2017-06-21T01:01:28.650Z,96.47
2017-06-21T01:01:42.125Z,96.47
2017-06-21T01:01:55.021Z,96.47
2017-06-21T01:02:08.464Z,96.37
2017-06-21T01:02:21.903Z,96.47
2017-06-21T01:02:35.409Z,96.47
2017-06-21T01:02:49.109Z,96.56
2017-06-21T01:03:02.585Z,96.47
2017-06-21T01:03:16.084Z,96.84
2017-06-21T01:03:29.546Z,96.84
2017-06-21T01:03:42.524Z,96.56
2017-06-21T01:03:56.012Z,96.37
2017-06-21T01:04:09.462Z,96.27
2017-06-21T01:04:22.917Z,96.37
2017-06-21T01:04:35.317Z,96.37
2017-06-21T01:04:48.286Z,96.47
2017-06-21T01:05:01.768Z,96.47
2017-06-21T01:05:14.636Z,96.56
2017-06-21T01:05:27.580Z,96.66
2017-06-21T01:05:41.040Z,96.47
2017-06-21T01:05:54.514Z,96.47
2017-06-21T01:06:07.457Z,96.47
2017-06-21T01:06:20.939Z,96.47
2017-06-21T01:06:34.468Z,96.56
2017-06-21T01:06:47.418Z,96.56
2017-06-21T01:07:00.888Z,96.47
2017-06-21T01:07:13.865Z,96.47
2017-06-21T01:07:26.786Z,96.47
2017-06-21T01:07:40.216Z,96.37
2017-06-21T01:07:53.755Z,96.56
2017-06-21T01:08:07.197Z,96.56
2017-06-21T01:08:20.103Z,96.47
2017-06-21T01:08:33.542Z,96.47
2017-06-21T01:08:46.972Z,96.37
2017-06-21T01:09:00.479Z,96.27
2017-06-21T01:09:13.918Z,96.47
2017-06-21T01:09:27.388Z,96.47
2017-06-21T01:09:40.871Z,96.47
2017-06-21T01:09:54.354Z,96.47
2017-06-21T01:10:06.294Z,96.37
2017-06-21T01:10:19.782Z,96.37
2017-06-21T01:10:32.716Z,96.75
2017-06-21T01:10:45.643Z,96.47
2017-06-21T01:10:57.997Z,96.47
2017-06-21T01:11:10.920Z,96.47
2017-06-21T01:11:24.360Z,96.47
2017-06-21T01:11:37.890Z,96.47
2017-06-21T01:11:51.345Z,96.47
2017-06-21T01:12:04.285Z,96.56
2017-06-21T01:12:17.773Z,96.18
2017-06-21T01:12:31.216Z,96.08
2017-06-21T01:12:44.631Z,96.27
2017-06-21T01:12:58.041Z,96.56
2017-06-21T01:13:11.503Z,95.98
2017-06-21T01:13:23.877Z,96.56
2017-06-21T01:13:37.394Z,96.56
2017-06-21T01:13:50.884Z,96.37
2017-06-21T01:14:04.356Z,96.18
2017-06-21T01:14:18.028Z,96.56
2017-06-21T01:14:30.969Z,96.27
2017-06-21T01:14:44.458Z,96.47
2017-06-21T01:14:57.946Z,96.66
2017-06-21T01:15:11.385Z,96.47
2017-06-21T01:15:24.343Z,96.27
2017-06-21T01:15:37.787Z,96.56
2017-06-21T01:15:50.756Z,96.47
2017-06-21T01:16:04.222Z,96.47
2017-06-21T01:16:17.696Z,96.37
2017-06-21T01:16:30.686Z,96.27
2017-06-21T01:16:44.418Z,96.56
2017-06-21T01:16:57.360Z,96.56
2017-06-21T01:17:10.329Z,96.47
2017-06-21T01:17:23.738Z,96.47
2017-06-21T01:17:36.720Z,96.56
2017-06-21T01:17:50.143Z,96.47
2017-06-21T01:18:03.084Z,96.47
2017-06-21T01:18:16.563Z,96.47
2017-06-21T01:18:30.043Z,96.47
2017-06-21T01:18:43.492Z,96.47
2017-06-21T01:18:56.952Z,96.27
2017-06-21T01:19:10.387Z,96.37
2017-06-21T01:19:23.303Z,96.37
2017-06-21T01:19:36.762Z,96.37
2017-06-21T01:19:50.207Z,96.27
2017-06-21T01:20:03.668Z,96.47
2017-06-21T01:20:16.051Z,96.47
2017-06-21T01:20:29.537Z,96.47
2017-06-21T01:20:41.917Z,96.47
2017-06-21T01:20:55.386Z,96.47
2017-06-21T01:21:08.836Z,96.37
2017-06-21T01:21:22.292Z,96.37
2017-06-21T01:21:35.813Z,96.47
2017-06-21T01:21:49.341Z,96.47
2017-06-21T01:22:02.797Z,96.37
2017-06-21T01:22:15.745Z,96.56
2017-06-21T01:22:29.206Z,96.37
2017-06-21T01:22:42.668Z,96.47
2017-06-21T01:22:56.079Z,96.47
2017-06-21T01:23:09.507Z,96.18
2017-06-21T01:23:22.390Z,96.18
2017-06-21T01:23:35.323Z,95.98
2017-06-21T01:23:48.775Z,96.18
2017-06-21T01:24:02.254Z,96.27
2017-06-21T01:24:15.625Z,95.98
2017-06-21T01:24:28.553Z,95.89
2017-06-21T01:24:41.478Z,95.89
2017-06-21T01:24:54.442Z,95.98
2017-06-21T01:25:06.894Z,95.89
2017-06-21T01:25:20.312Z,96.18
2017-06-21T01:25:33.831Z,95.98
2017-06-21T01:25:47.306Z,95.89
2017-06-21T01:26:00.896Z,95.98
2017-06-21T01:26:14.433Z,96.18
2017-06-21T01:26:27.883Z,95.98
2017-06-21T01:26:41.335Z,95.98
2017-06-21T01:26:54.846Z,95.98
2017-06-21T01:27:08.337Z,96.08
2017-06-21T01:27:21.812Z,96.18
2017-06-21T01:27:34.704Z,96.27
2017-06-21T01:27:48.170Z,95.98
2017-06-21T01:28:01.594Z,95.98
2017-06-21T01:28:14.553Z,96.08
2017-06-21T01:28:27.991Z,96.27
2017-06-21T01:28:40.970Z,96.18
2017-06-21T01:28:53.938Z,96.37
2017-06-21T01:29:07.355Z,96.37
2017-06-21T01:29:20.799Z,96.37
2017-06-21T01:29:33.681Z,96.37
2017-06-21T01:29:47.169Z,96.37
2017-06-21T01:30:00.589Z,96.37
2017-06-21T01:30:13.993Z,96.37
2017-06-21T01:30:26.371Z,96.27
2017-06-21T01:30:39.338Z,96.27
2017-06-21T01:30:52.284Z,96.37
2017-06-21T01:31:05.705Z,96.18
2017-06-21T01:31:18.661Z,96.27
2017-06-21T01:31:31.615Z,96.08
2017-06-21T01:31:44.825Z,96.18
2017-06-21T01:31:58.290Z,96.08
2017-06-21T01:32:11.256Z,96.18
2017-06-21T01:32:24.699Z,96.37
2017-06-21T01:32:38.262Z,96.56
2017-06-21T01:32:51.765Z,96.47
2017-06-21T01:33:04.146Z,96.37
2017-06-21T01:33:17.595Z,96.18
2017-06-21T01:33:31.019Z,96.47
2017-06-21T01:33:44.449Z,96.47
2017-06-21T01:33:57.369Z,96.27
2017-06-21T01:34:10.879Z,96.37
2017-06-21T01:34:23.780Z,96.47
2017-06-21T01:34:37.218Z,96.18
2017-06-21T01:34:50.707Z,96.47
2017-06-21T01:35:04.162Z,96.37
2017-06-21T01:35:17.613Z,96.37
2017-06-21T01:35:31.094Z,96.27
2017-06-21T01:35:44.592Z,95.89
2017-06-21T01:35:57.518Z,95.89
2017-06-21T01:36:10.466Z,96.37
2017-06-21T01:36:23.913Z,96.47
2017-06-21T01:36:36.775Z,96.27
2017-06-21T01:36:49.694Z,95.89
2017-06-21T01:37:03.145Z,95.7
2017-06-21T01:37:16.681Z,96.37
2017-06-21T01:37:30.160Z,95.98
2017-06-21T01:37:42.602Z,95.89
2017-06-21T01:37:56.111Z,96.37
2017-06-21T01:38:09.101Z,96.27
2017-06-21T01:38:22.525Z,96.37
2017-06-21T01:38:36.046Z,95.89
2017-06-21T01:38:48.978Z,95.51
2017-06-21T01:39:02.409Z,96.37
2017-06-21T01:39:15.934Z,95.89
2017-06-21T01:39:28.862Z,95.7
2017-06-21T01:39:42.310Z,95.51
2017-06-21T01:39:55.823Z,95.7
2017-06-21T01:40:09.331Z,95.51
2017-06-21T01:40:22.805Z,95.98
2017-06-21T01:40:36.276Z,95.79
2017-06-21T01:40:49.683Z,95.61
2017-06-21T01:41:02.590Z,95.7
2017-06-21T01:41:16.055Z,95.79
2017-06-21T01:41:29.504Z,95.79
2017-06-21T01:41:42.926Z,96.18
2017-06-21T01:41:55.831Z,96.08
2017-06-21T01:42:09.317Z,96.18
2017-06-21T01:42:22.794Z,96.18
2017-06-21T01:42:36.245Z,96.18
2017-06-21T01:42:49.227Z,96.27
2017-06-21T01:43:02.660Z,96.18
2017-06-21T01:43:16.139Z,96.37
2017-06-21T01:43:29.634Z,96.27
2017-06-21T01:43:42.569Z,96.56
2017-06-21T01:43:56.012Z,96.27
2017-06-21T01:44:08.962Z,96.18
2017-06-21T01:44:22.443Z,96.18
2017-06-21T01:44:35.952Z,96.27
2017-06-21T01:44:48.897Z,96.56
2017-06-21T01:45:02.405Z,96.18
2017-06-21T01:45:15.900Z,96.18
2017-06-21T01:45:29.352Z,96.37
2017-06-21T01:45:42.833Z,96.18
2017-06-21T01:45:56.314Z,96.27
2017-06-21T01:46:09.763Z,96.37
2017-06-21T01:46:23.289Z,96.56
2017-06-21T01:46:36.830Z,96.56
2017-06-21T01:46:50.016Z,96.27
2017-06-21T01:47:03.467Z,95.79
2017-06-21T01:47:16.920Z,95.89
2017-06-21T01:47:30.363Z,95.89
2017-06-21T01:47:42.715Z,95.79
2017-06-21T01:47:56.198Z,95.89
2017-06-21T01:48:09.639Z,96.27
2017-06-21T01:48:23.111Z,96.37
2017-06-21T01:48:36.592Z,95.89
2017-06-21T01:48:50.099Z,96.27
2017-06-21T01:49:03.028Z,95.51
2017-06-21T01:49:16.502Z,95.61
2017-06-21T01:49:30.007Z,95.61
2017-06-21T01:49:42.424Z,95.61
2017-06-21T01:49:55.876Z,95.7
2017-06-21T01:50:08.797Z,95.61
2017-06-21T01:50:21.752Z,95.61
2017-06-21T01:50:34.197Z,95.7
2017-06-21T01:50:47.625Z,95.51
2017-06-21T01:51:01.090Z,95.51
2017-06-21T01:51:14.553Z,95.61
2017-06-21T01:51:28.009Z,95.79
2017-06-21T01:51:41.482Z,95.98
2017-06-21T01:51:54.963Z,95.61
2017-06-21T01:52:07.923Z,95.79
2017-06-21T01:52:21.387Z,95.51
2017-06-21T01:52:34.802Z,95.89
2017-06-21T01:52:48.257Z,95.61
2017-06-21T01:53:01.746Z,95.61
2017-06-21T01:53:15.223Z,95.61
2017-06-21T01:53:28.600Z,96.37
2017-06-21T01:53:42.037Z,96.37
2017-06-21T01:53:55.530Z,96.08
2017-06-21T01:54:09.062Z,96.18
2017-06-21T01:54:22.004Z,96.47
2017-06-21T01:54:35.436Z,96.47
2017-06-21T01:54:48.939Z,95.79
2017-06-21T01:55:01.889Z,95.51
2017-06-21T01:55:14.874Z,95.51
2017-06-21T01:55:28.334Z,95.51
2017-06-21T01:55:43.139Z,96.37
2017-06-21T01:55:56.567Z,95.98
2017-06-21T01:56:09.512Z,96.08
2017-06-21T01:56:22.950Z,96.18
2017-06-21T01:56:36.408Z,96.18
2017-06-21T01:56:49.398Z,96.18
2017-06-21T01:57:02.331Z,96.56
2017-06-21T01:57:15.814Z,96.18
2017-06-21T01:57:29.238Z,96.18
2017-06-21T01:57:42.634Z,96.47
2017-06-21T01:57:55.556Z,96.27
2017-06-21T01:58:09.061Z,96.27
2017-06-21T01:58:21.956Z,95.89
2017-06-21T01:58:35.416Z,96.27
2017-06-21T01:58:48.934Z,96.37
2017-06-21T01:59:02.407Z,96.27
2017-06-21T01:59:15.866Z,95.89
2017-06-21T01:59:29.401Z,95.79
2017-06-21T01:59:42.888Z,96.47
2017-06-21T01:59:56.416Z,96.37
2017-06-21T02:00:09.915Z,96.08
2017-06-21T02:00:23.408Z,96.27
2017-06-21T02:00:36.858Z,96.37
2017-06-21T02:00:50.373Z,96.27
2017-06-21T02:01:03.856Z,96.18
2017-06-21T02:01:16.842Z,96.47
2017-06-21T02:01:30.559Z,96.47
2017-06-21T02:01:44.069Z,96.37
2017-06-21T02:01:57.834Z,96.37
2017-06-21T02:02:10.277Z,96.27
2017-06-21T02:02:23.748Z,96.18
2017-06-21T02:02:36.721Z,96.27
2017-06-21T02:02:50.257Z,95.7
2017-06-21T02:03:02.638Z,95.7
2017-06-21T02:03:15.565Z,95.51
2017-06-21T02:03:29.088Z,95.61
2017-06-21T02:03:42.524Z,95.41
2017-06-21T02:03:55.443Z,95.89
2017-06-21T02:04:08.367Z,96.56
2017-06-21T02:04:21.268Z,96.18
2017-06-21T02:04:34.715Z,96.37
2017-06-21T02:04:47.627Z,96.37
2017-06-21T02:05:01.042Z,96.47
2017-06-21T02:05:14.000Z,96.08
2017-06-21T02:05:27.506Z,96.08
2017-06-21T02:05:40.950Z,96.27
2017-06-21T02:05:54.453Z,96.37
2017-06-21T02:06:07.359Z,96.08
2017-06-21T02:06:20.793Z,96.18
2017-06-21T02:06:33.705Z,95.98
2017-06-21T02:06:46.675Z,96.18
2017-06-21T02:07:00.128Z,96.27
2017-06-21T02:07:13.042Z,95.89
2017-06-21T02:07:26.557Z,96.18
2017-06-21T02:07:39.514Z,95.98
2017-06-21T02:07:52.946Z,96.18
2017-06-21T02:08:06.355Z,96.27
2017-06-21T02:08:19.805Z,96.18
2017-06-21T02:08:33.271Z,96.08
2017-06-21T02:08:46.743Z,95.98
2017-06-21T02:08:59.695Z,95.98
2017-06-21T02:09:13.215Z,95.98
2017-06-21T02:09:26.133Z,95.89
2017-06-21T02:09:39.573Z,95.98
2017-06-21T02:09:53.068Z,96.18
2017-06-21T02:10:06.054Z,96.08
2017-06-21T02:10:19.004Z,96.18
2017-06-21T02:10:32.537Z,95.98
2017-06-21T02:10:45.986Z,96.27
2017-06-21T02:10:59.463Z,96.18
2017-06-21T02:11:12.416Z,96.27
2017-06-21T02:11:25.878Z,95.79
2017-06-21T02:11:38.788Z,96.18
2017-06-21T02:11:52.262Z,96.18
2017-06-21T02:12:05.301Z,95.98
2017-06-21T02:12:18.719Z,95.98
2017-06-21T02:12:31.678Z,96.27
2017-06-21T02:12:45.092Z,96.18
2017-06-21T02:12:57.963Z,95.98
2017-06-21T02:13:11.459Z,96.18
2017-06-21T02:13:24.940Z,96.27
2017-06-21T02:13:37.892Z,96.18
2017-06-21T02:13:51.347Z,95.89
2017-06-21T02:14:04.264Z,96.08
2017-06-21T02:14:17.821Z,95.89
2017-06-21T02:14:31.281Z,96.08
2017-06-21T02:14:45.045Z,96.18
2017-06-21T02:14:58.550Z,95.89
2017-06-21T02:15:12.015Z,96.27
2017-06-21T02:15:25.432Z,96.37
2017-06-21T02:15:38.833Z,96.27
2017-06-21T02:15:51.780Z,96.37
2017-06-21T02:16:04.714Z,96.08
2017-06-21T02:16:18.208Z,96.27
2017-06-21T02:16:31.168Z,96.37
2017-06-21T02:16:44.594Z,96.18
2017-06-21T02:16:58.086Z,95.89
2017-06-21T02:17:11.272Z,96.27
2017-06-21T02:17:24.186Z,96.18
2017-06-21T02:17:37.692Z,96.56
2017-06-21T02:17:51.179Z,96.27
2017-06-21T02:18:04.665Z,96.47
2017-06-21T02:18:17.639Z,96.56
2017-06-21T02:18:31.134Z,96.37
2017-06-21T02:18:44.593Z,96.27
2017-06-21T02:18:58.065Z,96.37
2017-06-21T02:19:11.520Z,95.7
2017-06-21T02:19:25.007Z,95.89
2017-06-21T02:19:38.480Z,95.61
2017-06-21T02:19:51.999Z,96.27
2017-06-21T02:20:05.479Z,96.47
2017-06-21T02:20:18.438Z,96.56
2017-06-21T02:20:31.352Z,96.18
2017-06-21T02:20:44.809Z,96.18
2017-06-21T02:20:58.215Z,95.79
2017-06-21T02:21:11.645Z,95.51
2017-06-21T02:21:25.140Z,95.51
2017-06-21T02:21:38.102Z,96.27
2017-06-21T02:21:51.526Z,95.79
2017-06-21T02:22:04.470Z,96.47
2017-06-21T02:22:17.952Z,96.27
2017-06-21T02:22:30.945Z,96.37
2017-06-21T02:22:44.374Z,96.27
2017-06-21T02:22:57.304Z,95.79
2017-06-21T02:23:10.715Z,95.51
2017-06-21T02:23:24.138Z,95.79
2017-06-21T02:23:37.045Z,95.89
2017-06-21T02:23:50.554Z,95.89
2017-06-21T02:24:04.019Z,95.79
2017-06-21T02:24:17.454Z,95.79
2017-06-21T02:24:30.442Z,95.61
2017-06-21T02:24:43.860Z,96.37
2017-06-21T02:24:57.324Z,96.37
2017-06-21T02:25:10.787Z,96.37
2017-06-21T02:25:24.235Z,95.89
2017-06-21T02:25:37.660Z,96.27
2017-06-21T02:25:51.124Z,96.37
2017-06-21T02:26:04.536Z,96.37
2017-06-21T02:26:18.012Z,96.37
2017-06-21T02:26:31.460Z,96.37
2017-06-21T02:26:44.943Z,95.89
2017-06-21T02:26:58.449Z,96.47
2017-06-21T02:27:11.864Z,95.98
2017-06-21T02:27:25.443Z,95.98
2017-06-21T02:27:38.423Z,96.37
2017-06-21T02:27:51.345Z,96.18
2017-06-21T02:28:04.776Z,96.37
2017-06-21T02:28:18.275Z,96.27
2017-06-21T02:28:31.790Z,96.27
2017-06-21T02:28:45.284Z,96.27
2017-06-21T02:28:58.170Z,96.27
2017-06-21T02:29:11.646Z,95.98
2017-06-21T02:29:25.157Z,96.27
2017-06-21T02:29:38.624Z,96.18
2017-06-21T02:29:51.566Z,96.27
2017-06-21T02:30:04.505Z,96.08
2017-06-21T02:30:18.032Z,96.18
2017-06-21T02:30:31.544Z,96.18
2017-06-21T02:30:43.435Z,96.08
2017-06-21T02:30:56.903Z,96.27
2017-06-21T02:31:10.384Z,96.27
2017-06-21T02:31:23.788Z,96.27
2017-06-21T02:31:36.718Z,96.27
2017-06-21T02:31:50.175Z,96.27
2017-06-21T02:32:03.627Z,96.37
2017-06-21T02:32:17.536Z,96.18
2017-06-21T02:32:30.968Z,96.08
2017-06-21T02:32:43.334Z,96.27
2017-06-21T02:32:56.734Z,96.08
2017-06-21T02:33:10.215Z,96.08
2017-06-21T02:33:23.684Z,96.47
2017-06-21T02:33:37.167Z,96.27
2017-06-21T02:33:50.740Z,96.56
2017-06-21T02:34:03.720Z,96.37
2017-06-21T02:34:17.201Z,96.27
2017-06-21T02:34:30.110Z,96.27
2017-06-21T02:34:43.070Z,96.47
2017-06-21T02:34:56.520Z,95.7
2017-06-21T02:35:09.493Z,96.37
2017-06-21T02:35:22.426Z,96.47
2017-06-21T02:35:35.860Z,96.18
2017-06-21T02:35:48.765Z,96.27
2017-06-21T02:36:02.212Z,96.37
2017-06-21T02:36:15.626Z,95.98
2017-06-21T02:36:29.050Z,95.98
2017-06-21T02:36:42.485Z,95.98
2017-06-21T02:36:56.028Z,96.18
2017-06-21T02:37:09.460Z,95.98
2017-06-21T02:37:22.367Z,95.98
2017-06-21T02:37:35.818Z,96.18
2017-06-21T02:37:49.291Z,96.37
2017-06-21T02:38:02.705Z,95.89
2017-06-21T02:38:16.156Z,96.27
2017-06-21T02:38:29.597Z,96.08
2017-06-21T02:38:43.102Z,96.27
2017-06-21T02:38:56.516Z,95.89
2017-06-21T02:39:09.978Z,95.89
2017-06-21T02:39:23.444Z,96.08
2017-06-21T02:39:36.924Z,95.89
2017-06-21T02:39:49.927Z,95.89
2017-06-21T02:40:03.394Z,95.98
2017-06-21T02:40:16.866Z,96.18
2017-06-21T02:40:30.341Z,95.98
2017-06-21T02:40:42.744Z,96.27
2017-06-21T02:40:55.701Z,96.08
2017-06-21T02:41:09.141Z,95.89
2017-06-21T02:41:22.561Z,96.08
2017-06-21T02:41:35.462Z,96.37
2017-06-21T02:41:48.921Z,96.37
2017-06-21T02:42:02.400Z,96.37
2017-06-21T02:42:15.914Z,96.27
2017-06-21T02:42:28.897Z,96.37
2017-06-21T02:42:42.340Z,96.27
2017-06-21T02:42:55.287Z,96.37
2017-06-21T02:43:08.727Z,96.7
2017-06-21T02:43:22.206Z,96.56
2017-06-21T02:43:35.111Z,96.47
2017-06-21T02:43:48.531Z,96.37
2017-06-21T02:44:01.508Z,96.27
2017-06-21T02:44:14.993Z,96.47
2017-06-21T02:44:28.502Z,96.47
2017-06-21T02:44:41.522Z,96.37
2017-06-21T02:44:54.951Z,96.47
2017-06-21T02:45:07.924Z,96.47
2017-06-21T02:45:21.308Z,96.47
2017-06-21T02:45:34.191Z,96.37
2017-06-21T02:45:47.696Z,96.47
2017-06-21T02:46:01.134Z,96.75
2017-06-21T02:46:13.528Z,96.94
2017-06-21T02:46:26.990Z,96.84
2017-06-21T02:46:40.403Z,96.51
2017-06-21T02:46:53.850Z,96.47
2017-06-21T02:47:07.321Z,96.47
2017-06-21T02:47:21.009Z,96.66
2017-06-21T02:47:34.433Z,96.56
2017-06-21T02:47:47.875Z,96.66
2017-06-21T02:48:01.349Z,96.75
2017-06-21T02:48:14.291Z,96.75
2017-06-21T02:48:27.715Z,96.75
2017-06-21T02:48:40.640Z,96.75
2017-06-21T02:48:54.015Z,97.04
2017-06-21T02:49:07.477Z,96.75
2017-06-21T02:49:20.974Z,96.84
2017-06-21T02:49:34.386Z,96.56
2017-06-21T02:49:47.836Z,96.75
2017-06-21T02:50:01.353Z,96.47
2017-06-21T02:50:14.786Z,97.04
2017-06-21T02:50:28.253Z,96.66
2017-06-21T02:50:41.733Z,96.75
2017-06-21T02:50:54.682Z,96.8
2017-06-21T02:51:08.153Z,96.75
2017-06-21T02:51:21.640Z,96.99